sensor_id;sensor_type;location;lat;lon;timestamp;P1;durP1;ratioP1;P2;durP2;ratioP2
60098;SDS011;62818;49.394;8.686;2022-08-25T00:00:29;5.22;;;2.50;;
60098;SDS011;62818;49.394;8.686;2022-08-25T00:01:31;2.65;;;2.13;;
60098;SDS011;62818;49.394;8.686;2022-08-25T00:02:40;4.32;;;2.03;;
60098;SDS011;62818;49.394;8.686;2022-08-25T00:03:45;3.38;;;2.42;;
60098;SDS011;62818;49.394;8.686;2022-08-25T00:04:46;4.38;;;2.40;;
60098;SDS011;62818;49.394;8.686;2022-08-25T00:05:47;3.13;;;2.10;;
60098;SDS011;62818;49.394;8.686;2022-08-25T00:06:50;3.53;;;2.50;;
60098;SDS011;62818;49.394;8.686;2022-08-25T00:07:54;4.72;;;2.33;;
60098;SDS011;62818;49.394;8.686;2022-08-25T00:08:58;4.03;;;2.00;;
60098;SDS011;62818;49.394;8.686;2022-08-25T00:10:02;3.42;;;2.10;;
60098;SDS011;62818;49.394;8.686;2022-08-25T00:11:15;4.05;;;2.67;;
60098;SDS011;62818;49.394;8.686;2022-08-25T00:12:22;2.20;;;2.00;;
60098;SDS011;62818;49.394;8.686;2022-08-25T00:13:25;3.47;;;2.38;;
60098;SDS011;62818;49.394;8.686;2022-08-25T00:14:30;3.03;;;2.50;;
60098;SDS011;62818;49.394;8.686;2022-08-25T00:15:37;3.60;;;2.10;;
60098;SDS011;62818;49.394;8.686;2022-08-25T00:16:43;6.45;;;2.60;;
60098;SDS011;62818;49.394;8.686;2022-08-25T00:17:44;3.15;;;2.85;;
60098;SDS011;62818;49.394;8.686;2022-08-25T00:18:46;3.67;;;2.57;;
60098;SDS011;62818;49.394;8.686;2022-08-25T00:19:54;2.58;;;2.08;;
60098;SDS011;62818;49.394;8.686;2022-08-25T00:20:59;2.70;;;2.50;;
60098;SDS011;62818;49.394;8.686;2022-08-25T00:22:00;3.08;;;2.67;;
60098;SDS011;62818;49.394;8.686;2022-08-25T00:23:07;5.68;;;2.45;;
60098;SDS011;62818;49.394;8.686;2022-08-25T00:24:08;3.00;;;2.42;;
60098;SDS011;62818;49.394;8.686;2022-08-25T00:25:15;3.33;;;2.60;;
60098;SDS011;62818;49.394;8.686;2022-08-25T00:26:18;3.92;;;2.72;;
60098;SDS011;62818;49.394;8.686;2022-08-25T00:27:21;5.68;;;2.85;;
60098;SDS011;62818;49.394;8.686;2022-08-25T00:28:27;3.72;;;2.63;;
60098;SDS011;62818;49.394;8.686;2022-08-25T00:29:32;2.42;;;2.17;;
60098;SDS011;62818;49.394;8.686;2022-08-25T00:30:37;4.38;;;2.90;;
60098;SDS011;62818;49.394;8.686;2022-08-25T00:31:38;2.95;;;2.30;;
60098;SDS011;62818;49.394;8.686;2022-08-25T00:32:44;3.63;;;2.90;;
60098;SDS011;62818;49.394;8.686;2022-08-25T00:33:48;2.75;;;2.47;;
60098;SDS011;62818;49.394;8.686;2022-08-25T00:34:53;4.63;;;2.60;;
60098;SDS011;62818;49.394;8.686;2022-08-25T00:35:59;4.88;;;2.67;;
60098;SDS011;62818;49.394;8.686;2022-08-25T00:37:04;8.82;;;2.70;;
60098;SDS011;62818;49.394;8.686;2022-08-25T00:38:09;5.75;;;2.80;;
60098;SDS011;62818;49.394;8.686;2022-08-25T00:39:12;5.28;;;3.45;;
60098;SDS011;62818;49.394;8.686;2022-08-25T00:40:15;4.57;;;3.47;;
60098;SDS011;62818;49.394;8.686;2022-08-25T00:41:19;5.28;;;2.90;;
60098;SDS011;62818;49.394;8.686;2022-08-25T00:42:23;4.15;;;3.63;;
60098;SDS011;62818;49.394;8.686;2022-08-25T00:43:25;5.38;;;2.88;;
60098;SDS011;62818;49.394;8.686;2022-08-25T00:44:27;4.93;;;2.90;;
60098;SDS011;62818;49.394;8.686;2022-08-25T00:45:33;5.55;;;3.00;;
60098;SDS011;62818;49.394;8.686;2022-08-25T00:46:44;5.32;;;3.28;;
60098;SDS011;62818;49.394;8.686;2022-08-25T00:47:49;4.80;;;3.33;;
60098;SDS011;62818;49.394;8.686;2022-08-25T00:48:58;4.93;;;4.20;;
60098;SDS011;62818;49.394;8.686;2022-08-25T00:50:08;3.67;;;3.28;;
60098;SDS011;62818;49.394;8.686;2022-08-25T00:51:15;6.03;;;3.20;;
60098;SDS011;62818;49.394;8.686;2022-08-25T00:52:25;4.45;;;3.10;;
60098;SDS011;62818;49.394;8.686;2022-08-25T00:53:29;4.55;;;3.08;;
60098;SDS011;62818;49.394;8.686;2022-08-25T00:54:43;3.63;;;2.90;;
60098;SDS011;62818;49.394;8.686;2022-08-25T00:55:53;5.05;;;3.25;;
60098;SDS011;62818;49.394;8.686;2022-08-25T00:56:58;5.32;;;3.75;;
60098;SDS011;62818;49.394;8.686;2022-08-25T00:58:04;8.85;;;3.75;;
60098;SDS011;62818;49.394;8.686;2022-08-25T00:59:16;5.15;;;3.33;;
60098;SDS011;62818;49.394;8.686;2022-08-25T01:00:27;5.85;;;3.10;;
60098;SDS011;62818;49.394;8.686;2022-08-25T01:01:33;3.78;;;3.10;;
60098;SDS011;62818;49.394;8.686;2022-08-25T01:02:34;4.40;;;3.22;;
60098;SDS011;62818;49.394;8.686;2022-08-25T01:03:37;4.88;;;3.03;;
60098;SDS011;62818;49.394;8.686;2022-08-25T01:04:41;4.80;;;3.10;;
60098;SDS011;62818;49.394;8.686;2022-08-25T01:05:43;4.45;;;3.38;;
60098;SDS011;62818;49.394;8.686;2022-08-25T01:06:45;7.10;;;3.53;;
60098;SDS011;62818;49.394;8.686;2022-08-25T01:07:48;4.28;;;3.50;;
60098;SDS011;62818;49.394;8.686;2022-08-25T01:08:51;5.38;;;3.50;;
60098;SDS011;62818;49.394;8.686;2022-08-25T01:09:55;9.45;;;3.58;;
60098;SDS011;62818;49.394;8.686;2022-08-25T01:11:01;4.70;;;3.20;;
60098;SDS011;62818;49.394;8.686;2022-08-25T01:12:09;3.83;;;3.22;;
60098;SDS011;62818;49.394;8.686;2022-08-25T01:13:14;5.43;;;3.50;;
60098;SDS011;62818;49.394;8.686;2022-08-25T01:14:25;5.05;;;3.33;;
60098;SDS011;62818;49.394;8.686;2022-08-25T01:15:36;7.87;;;5.80;;
60098;SDS011;62818;49.394;8.686;2022-08-25T01:16:37;5.03;;;2.97;;
60098;SDS011;62818;49.394;8.686;2022-08-25T01:17:49;4.47;;;3.42;;
60098;SDS011;62818;49.394;8.686;2022-08-25T01:18:55;4.07;;;2.80;;
60098;SDS011;62818;49.394;8.686;2022-08-25T01:19:59;3.17;;;2.88;;
60098;SDS011;62818;49.394;8.686;2022-08-25T01:21:00;4.10;;;3.00;;
60098;SDS011;62818;49.394;8.686;2022-08-25T01:22:03;4.65;;;3.17;;
60098;SDS011;62818;49.394;8.686;2022-08-25T01:23:04;4.18;;;3.42;;
60098;SDS011;62818;49.394;8.686;2022-08-25T01:24:08;5.43;;;3.63;;
60098;SDS011;62818;49.394;8.686;2022-08-25T01:27:08;3.50;;;3.17;;
60098;SDS011;62818;49.394;8.686;2022-08-25T01:28:11;4.38;;;3.25;;
60098;SDS011;62818;49.394;8.686;2022-08-25T01:29:16;3.60;;;3.10;;
60098;SDS011;62818;49.394;8.686;2022-08-25T01:30:20;6.00;;;3.28;;
60098;SDS011;62818;49.394;8.686;2022-08-25T01:31:21;8.55;;;4.57;;
60098;SDS011;62818;49.394;8.686;2022-08-25T01:32:22;5.20;;;3.72;;
60098;SDS011;62818;49.394;8.686;2022-08-25T01:33:22;5.75;;;3.60;;
60098;SDS011;62818;49.394;8.686;2022-08-25T01:34:27;6.13;;;3.75;;
60098;SDS011;62818;49.394;8.686;2022-08-25T01:35:35;7.97;;;3.50;;
60098;SDS011;62818;49.394;8.686;2022-08-25T01:36:41;3.88;;;3.30;;
60098;SDS011;62818;49.394;8.686;2022-08-25T01:37:44;4.10;;;3.30;;
60098;SDS011;62818;49.394;8.686;2022-08-25T01:38:45;4.90;;;3.00;;
60098;SDS011;62818;49.394;8.686;2022-08-25T01:39:46;5.55;;;3.17;;
60098;SDS011;62818;49.394;8.686;2022-08-25T01:40:47;4.72;;;3.10;;
60098;SDS011;62818;49.394;8.686;2022-08-25T01:42:12;4.47;;;3.78;;
60098;SDS011;62818;49.394;8.686;2022-08-25T01:43:30;5.68;;;3.88;;
60098;SDS011;62818;49.394;8.686;2022-08-25T01:44:39;5.22;;;3.30;;
60098;SDS011;62818;49.394;8.686;2022-08-25T01:45:45;4.22;;;3.22;;
60098;SDS011;62818;49.394;8.686;2022-08-25T01:46:47;3.47;;;3.17;;
60098;SDS011;62818;49.394;8.686;2022-08-25T01:47:50;4.63;;;3.58;;
60098;SDS011;62818;49.394;8.686;2022-08-25T01:48:53;4.25;;;3.65;;
60098;SDS011;62818;49.394;8.686;2022-08-25T01:49:54;4.93;;;3.53;;
60098;SDS011;62818;49.394;8.686;2022-08-25T01:50:57;5.17;;;3.50;;
60098;SDS011;62818;49.394;8.686;2022-08-25T01:53:17;4.35;;;3.63;;
60098;SDS011;62818;49.394;8.686;2022-08-25T01:54:51;7.13;;;3.80;;
60098;SDS011;62818;49.394;8.686;2022-08-25T01:55:58;5.60;;;4.45;;
60098;SDS011;62818;49.394;8.686;2022-08-25T01:57:01;5.25;;;3.90;;
60098;SDS011;62818;49.394;8.686;2022-08-25T01:58:01;9.80;;;4.50;;
60098;SDS011;62818;49.394;8.686;2022-08-25T01:59:04;6.80;;;4.15;;
60098;SDS011;62818;49.394;8.686;2022-08-25T02:00:08;7.97;;;4.13;;
60098;SDS011;62818;49.394;8.686;2022-08-25T02:01:15;7.50;;;6.10;;
60098;SDS011;62818;49.394;8.686;2022-08-25T02:02:21;5.70;;;4.45;;
60098;SDS011;62818;49.394;8.686;2022-08-25T02:03:22;4.90;;;3.88;;
60098;SDS011;62818;49.394;8.686;2022-08-25T02:04:30;6.47;;;4.00;;
60098;SDS011;62818;49.394;8.686;2022-08-25T02:06:33;7.72;;;4.45;;
60098;SDS011;62818;49.394;8.686;2022-08-25T02:07:36;4.13;;;3.38;;
60098;SDS011;62818;49.394;8.686;2022-08-25T02:08:37;4.67;;;3.93;;
60098;SDS011;62818;49.394;8.686;2022-08-25T02:09:38;6.68;;;4.30;;
60098;SDS011;62818;49.394;8.686;2022-08-25T02:10:39;6.03;;;3.97;;
60098;SDS011;62818;49.394;8.686;2022-08-25T02:11:41;5.53;;;3.42;;
60098;SDS011;62818;49.394;8.686;2022-08-25T02:12:48;4.85;;;4.22;;
60098;SDS011;62818;49.394;8.686;2022-08-25T02:13:52;5.28;;;4.25;;
60098;SDS011;62818;49.394;8.686;2022-08-25T02:14:55;7.47;;;4.32;;
60098;SDS011;62818;49.394;8.686;2022-08-25T02:15:58;6.03;;;4.15;;
60098;SDS011;62818;49.394;8.686;2022-08-25T02:17:04;5.97;;;3.85;;
60098;SDS011;62818;49.394;8.686;2022-08-25T02:18:08;9.10;;;4.20;;
60098;SDS011;62818;49.394;8.686;2022-08-25T02:19:11;7.25;;;4.20;;
60098;SDS011;62818;49.394;8.686;2022-08-25T02:20:15;5.90;;;4.38;;
60098;SDS011;62818;49.394;8.686;2022-08-25T02:21:16;5.43;;;4.13;;
60098;SDS011;62818;49.394;8.686;2022-08-25T02:22:16;7.75;;;4.13;;
60098;SDS011;62818;49.394;8.686;2022-08-25T02:23:20;6.80;;;4.22;;
60098;SDS011;62818;49.394;8.686;2022-08-25T02:24:23;5.05;;;3.92;;
60098;SDS011;62818;49.394;8.686;2022-08-25T02:25:23;8.13;;;4.50;;
60098;SDS011;62818;49.394;8.686;2022-08-25T02:26:24;7.00;;;3.63;;
60098;SDS011;62818;49.394;8.686;2022-08-25T02:27:25;5.80;;;4.40;;
60098;SDS011;62818;49.394;8.686;2022-08-25T02:28:28;4.72;;;3.63;;
60098;SDS011;62818;49.394;8.686;2022-08-25T02:29:31;8.93;;;4.15;;
60098;SDS011;62818;49.394;8.686;2022-08-25T02:30:35;6.65;;;4.72;;
60098;SDS011;62818;49.394;8.686;2022-08-25T02:31:40;6.35;;;4.30;;
60098;SDS011;62818;49.394;8.686;2022-08-25T02:32:43;6.20;;;4.80;;
60098;SDS011;62818;49.394;8.686;2022-08-25T02:33:43;6.55;;;4.65;;
60098;SDS011;62818;49.394;8.686;2022-08-25T02:34:47;6.10;;;4.55;;
60098;SDS011;62818;49.394;8.686;2022-08-25T02:35:49;6.13;;;4.63;;
60098;SDS011;62818;49.394;8.686;2022-08-25T02:36:50;6.00;;;4.45;;
60098;SDS011;62818;49.394;8.686;2022-08-25T02:37:51;5.17;;;4.50;;
60098;SDS011;62818;49.394;8.686;2022-08-25T02:38:57;4.97;;;4.13;;
60098;SDS011;62818;49.394;8.686;2022-08-25T02:39:58;5.78;;;4.32;;
60098;SDS011;62818;49.394;8.686;2022-08-25T02:41:07;8.55;;;4.25;;
60098;SDS011;62818;49.394;8.686;2022-08-25T02:42:19;6.63;;;3.95;;
60098;SDS011;62818;49.394;8.686;2022-08-25T02:43:24;7.72;;;4.90;;
60098;SDS011;62818;49.394;8.686;2022-08-25T02:44:28;6.65;;;4.30;;
60098;SDS011;62818;49.394;8.686;2022-08-25T02:45:31;4.70;;;3.88;;
60098;SDS011;62818;49.394;8.686;2022-08-25T02:46:36;5.72;;;4.10;;
60098;SDS011;62818;49.394;8.686;2022-08-25T02:47:39;11.02;;;4.70;;
60098;SDS011;62818;49.394;8.686;2022-08-25T02:48:45;5.78;;;4.07;;
60098;SDS011;62818;49.394;8.686;2022-08-25T02:49:52;8.13;;;5.00;;
60098;SDS011;62818;49.394;8.686;2022-08-25T02:50:52;7.85;;;4.50;;
60098;SDS011;62818;49.394;8.686;2022-08-25T02:51:55;8.70;;;4.75;;
60098;SDS011;62818;49.394;8.686;2022-08-25T02:52:57;6.20;;;4.72;;
60098;SDS011;62818;49.394;8.686;2022-08-25T02:53:59;6.80;;;4.50;;
60098;SDS011;62818;49.394;8.686;2022-08-25T02:55:04;6.18;;;4.80;;
60098;SDS011;62818;49.394;8.686;2022-08-25T02:56:09;5.53;;;4.63;;
60098;SDS011;62818;49.394;8.686;2022-08-25T02:57:14;7.10;;;4.53;;
60098;SDS011;62818;49.394;8.686;2022-08-25T02:58:17;6.47;;;4.47;;
60098;SDS011;62818;49.394;8.686;2022-08-25T02:59:17;8.65;;;5.43;;
60098;SDS011;62818;49.394;8.686;2022-08-25T03:00:20;5.60;;;4.28;;
60098;SDS011;62818;49.394;8.686;2022-08-25T03:01:23;6.15;;;4.78;;
60098;SDS011;62818;49.394;8.686;2022-08-25T03:02:24;8.40;;;4.43;;
60098;SDS011;62818;49.394;8.686;2022-08-25T03:04:26;8.07;;;4.57;;
60098;SDS011;62818;49.394;8.686;2022-08-25T03:05:31;8.68;;;4.50;;
60098;SDS011;62818;49.394;8.686;2022-08-25T03:06:35;5.18;;;4.53;;
60098;SDS011;62818;49.394;8.686;2022-08-25T03:07:35;6.17;;;4.20;;
60098;SDS011;62818;49.394;8.686;2022-08-25T03:08:37;6.03;;;4.22;;
60098;SDS011;62818;49.394;8.686;2022-08-25T03:09:41;8.35;;;4.50;;
60098;SDS011;62818;49.394;8.686;2022-08-25T03:11:48;8.13;;;4.28;;
60098;SDS011;62818;49.394;8.686;2022-08-25T03:12:51;5.70;;;4.03;;
60098;SDS011;62818;49.394;8.686;2022-08-25T03:13:52;4.83;;;4.33;;
60098;SDS011;62818;49.394;8.686;2022-08-25T03:14:59;8.30;;;4.80;;
60098;SDS011;62818;49.394;8.686;2022-08-25T03:16:00;5.50;;;4.15;;
60098;SDS011;62818;49.394;8.686;2022-08-25T03:17:06;5.50;;;4.57;;
60098;SDS011;62818;49.394;8.686;2022-08-25T03:18:10;10.05;;;4.72;;
60098;SDS011;62818;49.394;8.686;2022-08-25T03:19:14;7.13;;;4.18;;
60098;SDS011;62818;49.394;8.686;2022-08-25T03:20:15;6.40;;;4.35;;
60098;SDS011;62818;49.394;8.686;2022-08-25T03:21:19;8.60;;;4.90;;
60098;SDS011;62818;49.394;8.686;2022-08-25T03:22:20;6.25;;;4.55;;
60098;SDS011;62818;49.394;8.686;2022-08-25T03:23:26;5.80;;;4.45;;
60098;SDS011;62818;49.394;8.686;2022-08-25T03:24:26;6.57;;;4.53;;
60098;SDS011;62818;49.394;8.686;2022-08-25T03:25:31;5.82;;;4.25;;
60098;SDS011;62818;49.394;8.686;2022-08-25T03:26:51;5.43;;;4.80;;
60098;SDS011;62818;49.394;8.686;2022-08-25T03:27:54;5.47;;;4.43;;
60098;SDS011;62818;49.394;8.686;2022-08-25T03:28:57;4.85;;;4.30;;
60098;SDS011;62818;49.394;8.686;2022-08-25T03:30:04;6.93;;;4.80;;
60098;SDS011;62818;49.394;8.686;2022-08-25T03:31:06;6.75;;;4.70;;
60098;SDS011;62818;49.394;8.686;2022-08-25T03:32:08;5.93;;;4.53;;
60098;SDS011;62818;49.394;8.686;2022-08-25T03:33:10;7.93;;;4.28;;
60098;SDS011;62818;49.394;8.686;2022-08-25T03:34:14;9.55;;;4.95;;
60098;SDS011;62818;49.394;8.686;2022-08-25T03:35:21;4.80;;;4.32;;
60098;SDS011;62818;49.394;8.686;2022-08-25T03:36:26;6.10;;;4.50;;
60098;SDS011;62818;49.394;8.686;2022-08-25T03:37:31;6.93;;;4.35;;
60098;SDS011;62818;49.394;8.686;2022-08-25T03:38:37;5.78;;;4.38;;
60098;SDS011;62818;49.394;8.686;2022-08-25T03:39:45;8.00;;;4.80;;
60098;SDS011;62818;49.394;8.686;2022-08-25T03:40:46;5.60;;;5.00;;
60098;SDS011;62818;49.394;8.686;2022-08-25T03:41:49;7.05;;;4.72;;
60098;SDS011;62818;49.394;8.686;2022-08-25T03:42:52;5.72;;;4.50;;
60098;SDS011;62818;49.394;8.686;2022-08-25T03:43:58;6.25;;;4.45;;
60098;SDS011;62818;49.394;8.686;2022-08-25T03:45:03;5.13;;;4.35;;
60098;SDS011;62818;49.394;8.686;2022-08-25T03:46:07;5.70;;;4.68;;
60098;SDS011;62818;49.394;8.686;2022-08-25T03:47:08;5.22;;;4.00;;
60098;SDS011;62818;49.394;8.686;2022-08-25T03:48:11;6.38;;;4.80;;
60098;SDS011;62818;49.394;8.686;2022-08-25T03:49:18;5.72;;;4.60;;
60098;SDS011;62818;49.394;8.686;2022-08-25T03:50:23;6.72;;;4.13;;
60098;SDS011;62818;49.394;8.686;2022-08-25T03:51:25;7.10;;;4.70;;
60098;SDS011;62818;49.394;8.686;2022-08-25T03:52:32;5.13;;;3.97;;
60098;SDS011;62818;49.394;8.686;2022-08-25T03:53:38;6.43;;;4.85;;
60098;SDS011;62818;49.394;8.686;2022-08-25T03:54:38;5.50;;;3.93;;
60098;SDS011;62818;49.394;8.686;2022-08-25T03:55:47;6.93;;;4.82;;
60098;SDS011;62818;49.394;8.686;2022-08-25T03:56:47;5.57;;;4.25;;
60098;SDS011;62818;49.394;8.686;2022-08-25T03:57:48;10.40;;;4.50;;
60098;SDS011;62818;49.394;8.686;2022-08-25T03:58:51;6.78;;;4.32;;
60098;SDS011;62818;49.394;8.686;2022-08-25T03:59:56;9.35;;;4.68;;
60098;SDS011;62818;49.394;8.686;2022-08-25T04:01:03;5.10;;;4.22;;
60098;SDS011;62818;49.394;8.686;2022-08-25T04:02:06;5.38;;;4.38;;
60098;SDS011;62818;49.394;8.686;2022-08-25T04:03:07;7.60;;;4.38;;
60098;SDS011;62818;49.394;8.686;2022-08-25T04:04:08;4.77;;;4.10;;
60098;SDS011;62818;49.394;8.686;2022-08-25T04:05:13;6.00;;;4.28;;
60098;SDS011;62818;49.394;8.686;2022-08-25T04:06:14;5.03;;;3.75;;
60098;SDS011;62818;49.394;8.686;2022-08-25T04:07:19;6.03;;;4.93;;
60098;SDS011;62818;49.394;8.686;2022-08-25T04:08:21;6.90;;;4.70;;
60098;SDS011;62818;49.394;8.686;2022-08-25T04:09:24;9.60;;;4.15;;
60098;SDS011;62818;49.394;8.686;2022-08-25T04:10:28;5.22;;;4.72;;
60098;SDS011;62818;49.394;8.686;2022-08-25T04:11:33;7.50;;;4.43;;
60098;SDS011;62818;49.394;8.686;2022-08-25T04:12:36;7.72;;;4.60;;
60098;SDS011;62818;49.394;8.686;2022-08-25T04:13:37;5.70;;;4.57;;
60098;SDS011;62818;49.394;8.686;2022-08-25T04:14:46;5.55;;;4.07;;
60098;SDS011;62818;49.394;8.686;2022-08-25T04:15:46;6.65;;;4.60;;
60098;SDS011;62818;49.394;8.686;2022-08-25T04:16:48;5.25;;;4.50;;
60098;SDS011;62818;49.394;8.686;2022-08-25T04:17:48;6.13;;;4.50;;
60098;SDS011;62818;49.394;8.686;2022-08-25T04:18:52;7.40;;;4.38;;
60098;SDS011;62818;49.394;8.686;2022-08-25T04:19:54;4.75;;;4.28;;
60098;SDS011;62818;49.394;8.686;2022-08-25T04:21:00;7.78;;;4.68;;
60098;SDS011;62818;49.394;8.686;2022-08-25T04:22:03;11.55;;;4.45;;
60098;SDS011;62818;49.394;8.686;2022-08-25T04:23:06;6.13;;;4.65;;
60098;SDS011;62818;49.394;8.686;2022-08-25T04:24:11;5.32;;;4.38;;
60098;SDS011;62818;49.394;8.686;2022-08-25T04:25:15;7.97;;;4.60;;
60098;SDS011;62818;49.394;8.686;2022-08-25T04:27:33;6.88;;;4.47;;
60098;SDS011;62818;49.394;8.686;2022-08-25T04:28:34;5.57;;;4.00;;
60098;SDS011;62818;49.394;8.686;2022-08-25T04:29:37;7.10;;;4.53;;
60098;SDS011;62818;49.394;8.686;2022-08-25T04:30:41;7.32;;;4.35;;
60098;SDS011;62818;49.394;8.686;2022-08-25T04:31:43;8.07;;;4.00;;
60098;SDS011;62818;49.394;8.686;2022-08-25T04:32:48;4.32;;;3.92;;
60098;SDS011;62818;49.394;8.686;2022-08-25T04:33:49;6.82;;;3.80;;
60098;SDS011;62818;49.394;8.686;2022-08-25T04:34:50;8.10;;;4.72;;
60098;SDS011;62818;49.394;8.686;2022-08-25T04:35:53;5.03;;;4.38;;
60098;SDS011;62818;49.394;8.686;2022-08-25T04:36:56;6.20;;;4.22;;
60098;SDS011;62818;49.394;8.686;2022-08-25T04:38:01;5.35;;;4.70;;
60098;SDS011;62818;49.394;8.686;2022-08-25T04:39:02;6.77;;;3.87;;
60098;SDS011;62818;49.394;8.686;2022-08-25T04:40:05;5.45;;;3.80;;
60098;SDS011;62818;49.394;8.686;2022-08-25T04:41:10;5.50;;;4.32;;
60098;SDS011;62818;49.394;8.686;2022-08-25T04:42:13;5.47;;;4.18;;
60098;SDS011;62818;49.394;8.686;2022-08-25T04:43:14;7.83;;;4.67;;
60098;SDS011;62818;49.394;8.686;2022-08-25T04:44:15;7.32;;;4.63;;
60098;SDS011;62818;49.394;8.686;2022-08-25T04:45:20;5.70;;;4.38;;
60098;SDS011;62818;49.394;8.686;2022-08-25T04:46:22;6.33;;;4.40;;
60098;SDS011;62818;49.394;8.686;2022-08-25T04:47:35;9.20;;;4.80;;
60098;SDS011;62818;49.394;8.686;2022-08-25T04:48:41;5.95;;;4.40;;
60098;SDS011;62818;49.394;8.686;2022-08-25T04:49:47;6.55;;;4.45;;
60098;SDS011;62818;49.394;8.686;2022-08-25T04:50:54;4.97;;;4.45;;
60098;SDS011;62818;49.394;8.686;2022-08-25T04:51:55;9.00;;;4.67;;
60098;SDS011;62818;49.394;8.686;2022-08-25T04:52:56;4.80;;;4.28;;
60098;SDS011;62818;49.394;8.686;2022-08-25T04:53:57;5.83;;;4.33;;
60098;SDS011;62818;49.394;8.686;2022-08-25T04:55:04;7.03;;;4.50;;
60098;SDS011;62818;49.394;8.686;2022-08-25T04:56:05;5.45;;;4.60;;
60098;SDS011;62818;49.394;8.686;2022-08-25T04:58:19;5.38;;;4.30;;
60098;SDS011;62818;49.394;8.686;2022-08-25T04:59:20;5.77;;;3.97;;
60098;SDS011;62818;49.394;8.686;2022-08-25T05:00:20;7.50;;;4.67;;
60098;SDS011;62818;49.394;8.686;2022-08-25T05:01:24;8.32;;;4.30;;
60098;SDS011;62818;49.394;8.686;2022-08-25T05:02:27;4.80;;;3.70;;
60098;SDS011;62818;49.394;8.686;2022-08-25T05:03:30;5.20;;;4.32;;
60098;SDS011;62818;49.394;8.686;2022-08-25T05:04:34;5.30;;;4.47;;
60098;SDS011;62818;49.394;8.686;2022-08-25T05:05:36;6.65;;;4.45;;
60098;SDS011;62818;49.394;8.686;2022-08-25T05:06:38;6.22;;;4.78;;
60098;SDS011;62818;49.394;8.686;2022-08-25T05:07:40;8.18;;;4.05;;
60098;SDS011;62818;49.394;8.686;2022-08-25T05:08:41;6.13;;;4.85;;
60098;SDS011;62818;49.394;8.686;2022-08-25T05:09:42;6.90;;;4.53;;
60098;SDS011;62818;49.394;8.686;2022-08-25T05:10:45;6.32;;;4.50;;
60098;SDS011;62818;49.394;8.686;2022-08-25T05:11:52;7.15;;;4.25;;
60098;SDS011;62818;49.394;8.686;2022-08-25T05:12:53;5.63;;;4.53;;
60098;SDS011;62818;49.394;8.686;2022-08-25T05:13:59;6.40;;;4.15;;
60098;SDS011;62818;49.394;8.686;2022-08-25T05:15:03;5.22;;;4.72;;
60098;SDS011;62818;49.394;8.686;2022-08-25T05:16:24;4.95;;;4.07;;
60098;SDS011;62818;49.394;8.686;2022-08-25T05:17:28;5.85;;;3.88;;
60098;SDS011;62818;49.394;8.686;2022-08-25T05:18:33;4.65;;;4.13;;
60098;SDS011;62818;49.394;8.686;2022-08-25T05:20:35;5.78;;;4.10;;
60098;SDS011;62818;49.394;8.686;2022-08-25T05:22:37;7.22;;;3.70;;
60098;SDS011;62818;49.394;8.686;2022-08-25T05:23:38;6.07;;;4.27;;
60098;SDS011;62818;49.394;8.686;2022-08-25T05:24:39;5.10;;;4.32;;
60098;SDS011;62818;49.394;8.686;2022-08-25T05:25:44;5.32;;;4.20;;
60098;SDS011;62818;49.394;8.686;2022-08-25T05:26:48;7.43;;;4.30;;
60098;SDS011;62818;49.394;8.686;2022-08-25T05:27:49;5.27;;;4.13;;
60098;SDS011;62818;49.394;8.686;2022-08-25T05:28:54;5.10;;;3.92;;
60098;SDS011;62818;49.394;8.686;2022-08-25T05:29:56;5.85;;;4.00;;
60098;SDS011;62818;49.394;8.686;2022-08-25T05:30:59;8.32;;;4.50;;
60098;SDS011;62818;49.394;8.686;2022-08-25T05:32:01;6.90;;;4.80;;
60098;SDS011;62818;49.394;8.686;2022-08-25T05:33:09;6.13;;;4.65;;
60098;SDS011;62818;49.394;8.686;2022-08-25T05:34:13;6.15;;;4.07;;
60098;SDS011;62818;49.394;8.686;2022-08-25T05:35:16;8.23;;;4.10;;
60098;SDS011;62818;49.394;8.686;2022-08-25T05:36:19;14.77;;;4.65;;
60098;SDS011;62818;49.394;8.686;2022-08-25T05:37:22;6.53;;;4.50;;
60098;SDS011;62818;49.394;8.686;2022-08-25T05:38:25;5.78;;;4.35;;
60098;SDS011;62818;49.394;8.686;2022-08-25T05:39:27;7.13;;;4.25;;
60098;SDS011;62818;49.394;8.686;2022-08-25T05:40:31;4.70;;;4.13;;
60098;SDS011;62818;49.394;8.686;2022-08-25T05:41:35;7.18;;;4.32;;
60098;SDS011;62818;49.394;8.686;2022-08-25T05:42:38;4.72;;;3.92;;
60098;SDS011;62818;49.394;8.686;2022-08-25T05:43:39;6.18;;;4.70;;
60098;SDS011;62818;49.394;8.686;2022-08-25T05:44:47;9.20;;;5.45;;
60098;SDS011;62818;49.394;8.686;2022-08-25T05:45:48;7.55;;;4.40;;
60098;SDS011;62818;49.394;8.686;2022-08-25T05:46:49;10.67;;;4.83;;
60098;SDS011;62818;49.394;8.686;2022-08-25T05:47:52;4.40;;;4.00;;
60098;SDS011;62818;49.394;8.686;2022-08-25T05:48:53;4.82;;;4.10;;
60098;SDS011;62818;49.394;8.686;2022-08-25T05:49:56;5.33;;;4.13;;
60098;SDS011;62818;49.394;8.686;2022-08-25T05:51:00;11.25;;;4.30;;
60098;SDS011;62818;49.394;8.686;2022-08-25T05:52:05;5.20;;;4.28;;
60098;SDS011;62818;49.394;8.686;2022-08-25T05:53:08;6.32;;;4.38;;
60098;SDS011;62818;49.394;8.686;2022-08-25T05:54:09;6.47;;;4.03;;
60098;SDS011;62818;49.394;8.686;2022-08-25T05:55:09;6.60;;;4.60;;
60098;SDS011;62818;49.394;8.686;2022-08-25T05:56:11;9.23;;;4.65;;
60098;SDS011;62818;49.394;8.686;2022-08-25T05:57:15;7.78;;;4.68;;
60098;SDS011;62818;49.394;8.686;2022-08-25T05:58:18;5.70;;;4.45;;
60098;SDS011;62818;49.394;8.686;2022-08-25T05:59:23;6.22;;;4.90;;
60098;SDS011;62818;49.394;8.686;2022-08-25T06:00:23;5.55;;;4.43;;
60098;SDS011;62818;49.394;8.686;2022-08-25T06:01:25;5.70;;;4.53;;
60098;SDS011;62818;49.394;8.686;2022-08-25T06:03:50;9.73;;;4.90;;
60098;SDS011;62818;49.394;8.686;2022-08-25T06:04:53;4.45;;;4.05;;
60098;SDS011;62818;49.394;8.686;2022-08-25T06:06:06;8.05;;;4.90;;
60098;SDS011;62818;49.394;8.686;2022-08-25T06:07:09;5.30;;;4.38;;
60098;SDS011;62818;49.394;8.686;2022-08-25T06:08:10;7.05;;;4.43;;
60098;SDS011;62818;49.394;8.686;2022-08-25T06:09:16;7.43;;;4.55;;
60098;SDS011;62818;49.394;8.686;2022-08-25T06:10:22;8.20;;;4.55;;
60098;SDS011;62818;49.394;8.686;2022-08-25T06:11:22;6.25;;;4.57;;
60098;SDS011;62818;49.394;8.686;2022-08-25T06:12:25;5.30;;;3.90;;
60098;SDS011;62818;49.394;8.686;2022-08-25T06:13:29;8.70;;;4.35;;
60098;SDS011;62818;49.394;8.686;2022-08-25T06:14:30;6.63;;;4.07;;
60098;SDS011;62818;49.394;8.686;2022-08-25T06:15:34;11.05;;;4.13;;
60098;SDS011;62818;49.394;8.686;2022-08-25T06:16:35;18.50;;;4.72;;
60098;SDS011;62818;49.394;8.686;2022-08-25T06:17:39;7.60;;;4.40;;
60098;SDS011;62818;49.394;8.686;2022-08-25T06:18:41;9.82;;;4.50;;
60098;SDS011;62818;49.394;8.686;2022-08-25T06:19:42;10.47;;;4.40;;
60098;SDS011;62818;49.394;8.686;2022-08-25T06:20:45;7.65;;;4.65;;
60098;SDS011;62818;49.394;8.686;2022-08-25T06:21:54;9.57;;;4.32;;
60098;SDS011;62818;49.394;8.686;2022-08-25T06:22:59;9.68;;;5.80;;
60098;SDS011;62818;49.394;8.686;2022-08-25T06:23:59;9.35;;;4.97;;
60098;SDS011;62818;49.394;8.686;2022-08-25T06:25:00;10.03;;;5.07;;
60098;SDS011;62818;49.394;8.686;2022-08-25T06:26:01;10.45;;;4.47;;
60098;SDS011;62818;49.394;8.686;2022-08-25T06:27:04;11.30;;;5.18;;
60098;SDS011;62818;49.394;8.686;2022-08-25T06:28:04;8.55;;;4.63;;
60098;SDS011;62818;49.394;8.686;2022-08-25T06:29:07;9.07;;;4.45;;
60098;SDS011;62818;49.394;8.686;2022-08-25T06:30:11;6.85;;;4.35;;
60098;SDS011;62818;49.394;8.686;2022-08-25T06:31:15;5.82;;;4.35;;
60098;SDS011;62818;49.394;8.686;2022-08-25T06:32:19;10.23;;;4.60;;
60098;SDS011;62818;49.394;8.686;2022-08-25T06:33:20;6.90;;;4.70;;
60098;SDS011;62818;49.394;8.686;2022-08-25T06:34:23;5.65;;;4.40;;
60098;SDS011;62818;49.394;8.686;2022-08-25T06:35:25;9.02;;;4.28;;
60098;SDS011;62818;49.394;8.686;2022-08-25T06:36:28;8.02;;;4.53;;
60098;SDS011;62818;49.394;8.686;2022-08-25T06:37:29;8.17;;;4.30;;